sensor_id;sensor_type;location;lat;lon;timestamp;temperature;humidity
48589;DHT22;34369;51.174;6.738;2023-06-10T00:00:10;20.40;48.60
48589;DHT22;34369;51.174;6.738;2023-06-10T00:02:45;20.30;49.20
48589;DHT22;34369;51.174;6.738;2023-06-10T00:05:17;20.30;49.30
48589;DHT22;34369;51.174;6.738;2023-06-10T00:07:53;20.30;49.60
48589;DHT22;34369;51.174;6.738;2023-06-10T00:10:25;20.20;49.60
48589;DHT22;34369;51.174;6.738;2023-06-10T00:12:57;20.20;50.10
48589;DHT22;34369;51.174;6.738;2023-06-10T00:15:31;20.10;50.00
48589;DHT22;34369;51.174;6.738;2023-06-10T00:18:03;20.00;50.10
48589;DHT22;34369;51.174;6.738;2023-06-10T00:20:36;20.00;50.40
48589;DHT22;34369;51.174;6.738;2023-06-10T00:23:10;19.90;50.50
48589;DHT22;34369;51.174;6.738;2023-06-10T00:25:43;19.80;51.30
48589;DHT22;34369;51.174;6.738;2023-06-10T00:28:15;19.70;51.20
48589;DHT22;34369;51.174;6.738;2023-06-10T00:30:51;19.60;51.10
48589;DHT22;34369;51.174;6.738;2023-06-10T00:33:23;19.50;51.50
48589;DHT22;34369;51.174;6.738;2023-06-10T00:36:09;19.50;51.00
48589;DHT22;34369;51.174;6.738;2023-06-10T00:38:43;19.40;51.50
48589;DHT22;34369;51.174;6.738;2023-06-10T00:41:15;19.30;51.90
48589;DHT22;34369;51.174;6.738;2023-06-10T00:43:47;19.20;52.20
48589;DHT22;34369;51.174;6.738;2023-06-10T00:46:23;19.10;52.10
48589;DHT22;34369;51.174;6.738;2023-06-10T00:48:57;19.00;52.60
48589;DHT22;34369;51.174;6.738;2023-06-10T00:51:31;19.00;52.70
48589;DHT22;34369;51.174;6.738;2023-06-10T00:54:04;18.90;53.30
48589;DHT22;34369;51.174;6.738;2023-06-10T00:56:36;18.80;53.00
48589;DHT22;34369;51.174;6.738;2023-06-10T00:59:13;18.70;53.40
48589;DHT22;34369;51.174;6.738;2023-06-10T01:01:47;18.60;53.60
48589;DHT22;34369;51.174;6.738;2023-06-10T01:04:23;18.50;53.70
48589;DHT22;34369;51.174;6.738;2023-06-10T01:07:00;18.50;54.20
48589;DHT22;34369;51.174;6.738;2023-06-10T01:09:44;18.40;54.40
48589;DHT22;34369;51.174;6.738;2023-06-10T01:12:20;18.30;54.50
48589;DHT22;34369;51.174;6.738;2023-06-10T01:14:59;18.30;55.00
48589;DHT22;34369;51.174;6.738;2023-06-10T01:17:37;18.20;55.00
48589;DHT22;34369;51.174;6.738;2023-06-10T01:20:12;18.10;55.60
48589;DHT22;34369;51.174;6.738;2023-06-10T01:23:01;18.10;55.30
48589;DHT22;34369;51.174;6.738;2023-06-10T01:25:38;18.00;55.50
48589;DHT22;34369;51.174;6.738;2023-06-10T01:28:14;18.00;55.80
48589;DHT22;34369;51.174;6.738;2023-06-10T01:31:00;17.90;55.80
48589;DHT22;34369;51.174;6.738;2023-06-10T01:33:43;17.80;56.40
48589;DHT22;34369;51.174;6.738;2023-06-10T01:36:19;17.80;56.40
48589;DHT22;34369;51.174;6.738;2023-06-10T01:38:55;17.70;56.50
48589;DHT22;34369;51.174;6.738;2023-06-10T01:41:28;17.60;56.70
48589;DHT22;34369;51.174;6.738;2023-06-10T01:44:01;17.60;56.70
48589;DHT22;34369;51.174;6.738;2023-06-10T01:46:33;17.50;57.00
48589;DHT22;34369;51.174;6.738;2023-06-10T01:49:05;17.50;57.30
48589;DHT22;34369;51.174;6.738;2023-06-10T01:51:38;17.50;57.50
48589;DHT22;34369;51.174;6.738;2023-06-10T01:54:12;17.40;57.80
48589;DHT22;34369;51.174;6.738;2023-06-10T01:56:44;17.40;57.80
48589;DHT22;34369;51.174;6.738;2023-06-10T01:59:16;17.30;57.70
48589;DHT22;34369;51.174;6.738;2023-06-10T02:01:48;17.20;58.10
48589;DHT22;34369;51.174;6.738;2023-06-10T02:04:20;17.20;58.20
48589;DHT22;34369;51.174;6.738;2023-06-10T02:06:52;17.10;58.30
48589;DHT22;34369;51.174;6.738;2023-06-10T02:09:27;17.10;58.70
48589;DHT22;34369;51.174;6.738;2023-06-10T02:12:08;17.00;58.80
48589;DHT22;34369;51.174;6.738;2023-06-10T02:14:42;17.00;58.70
48589;DHT22;34369;51.174;6.738;2023-06-10T02:17:15;16.90;58.90
48589;DHT22;34369;51.174;6.738;2023-06-10T02:19:47;16.90;59.00
48589;DHT22;34369;51.174;6.738;2023-06-10T02:22:23;16.90;59.20
48589;DHT22;34369;51.174;6.738;2023-06-10T02:24:57;16.80;58.80
48589;DHT22;34369;51.174;6.738;2023-06-10T02:27:30;16.80;58.90
48589;DHT22;34369;51.174;6.738;2023-06-10T02:30:02;16.70;59.20
48589;DHT22;34369;51.174;6.738;2023-06-10T02:32:34;16.70;59.50
48589;DHT22;34369;51.174;6.738;2023-06-10T02:35:06;16.70;59.60
48589;DHT22;34369;51.174;6.738;2023-06-10T02:37:43;16.70;59.60
48589;DHT22;34369;51.174;6.738;2023-06-10T02:40:16;16.60;59.90
48589;DHT22;34369;51.174;6.738;2023-06-10T02:42:48;16.60;59.90
48589;DHT22;34369;51.174;6.738;2023-06-10T02:45:22;16.60;59.90
48589;DHT22;34369;51.174;6.738;2023-06-10T02:47:55;16.50;59.90
48589;DHT22;34369;51.174;6.738;2023-06-10T02:50:27;16.50;60.10
48589;DHT22;34369;51.174;6.738;2023-06-10T02:52:59;16.50;60.20
48589;DHT22;34369;51.174;6.738;2023-06-10T02:55:33;16.40;60.70
48589;DHT22;34369;51.174;6.738;2023-06-10T02:58:06;16.40;61.00
48589;DHT22;34369;51.174;6.738;2023-06-10T03:00:40;16.30;60.60
48589;DHT22;34369;51.174;6.738;2023-06-10T03:03:13;16.30;60.70
48589;DHT22;34369;51.174;6.738;2023-06-10T03:05:47;16.30;60.80
48589;DHT22;34369;51.174;6.738;2023-06-10T03:08:19;16.20;60.60
48589;DHT22;34369;51.174;6.738;2023-06-10T03:10:53;16.20;60.90
48589;DHT22;34369;51.174;6.738;2023-06-10T03:13:25;16.10;60.80
48589;DHT22;34369;51.174;6.738;2023-06-10T03:15:58;16.10;61.10
48589;DHT22;34369;51.174;6.738;2023-06-10T03:18:30;16.10;61.30
48589;DHT22;34369;51.174;6.738;2023-06-10T03:21:03;16.10;61.40
48589;DHT22;34369;51.174;6.738;2023-06-10T03:23:35;16.10;61.60
48589;DHT22;34369;51.174;6.738;2023-06-10T03:26:10;16.00;61.50
48589;DHT22;34369;51.174;6.738;2023-06-10T03:28:44;16.00;61.70
48589;DHT22;34369;51.174;6.738;2023-06-10T03:31:17;16.00;61.70
48589;DHT22;34369;51.174;6.738;2023-06-10T03:33:53;16.00;61.60
48589;DHT22;34369;51.174;6.738;2023-06-10T03:36:25;15.90;61.70
48589;DHT22;34369;51.174;6.738;2023-06-10T03:38:59;15.90;61.90
48589;DHT22;34369;51.174;6.738;2023-06-10T03:41:33;15.90;61.90
48589;DHT22;34369;51.174;6.738;2023-06-10T03:44:05;15.80;62.00
48589;DHT22;34369;51.174;6.738;2023-06-10T03:46:37;15.80;62.40
48589;DHT22;34369;51.174;6.738;2023-06-10T03:49:09;15.80;62.50
48589;DHT22;34369;51.174;6.738;2023-06-10T03:51:42;15.80;62.70
48589;DHT22;34369;51.174;6.738;2023-06-10T03:54:17;15.80;62.60
48589;DHT22;34369;51.174;6.738;2023-06-10T03:56:50;15.80;62.60
48589;DHT22;34369;51.174;6.738;2023-06-10T03:59:22;15.80;62.80
48589;DHT22;34369;51.174;6.738;2023-06-10T04:01:55;15.70;62.70
48589;DHT22;34369;51.174;6.738;2023-06-10T04:04:27;15.70;62.80
48589;DHT22;34369;51.174;6.738;2023-06-10T04:07:01;15.70;63.00
48589;DHT22;34369;51.174;6.738;2023-06-10T04:09:35;15.70;63.10
48589;DHT22;34369;51.174;6.738;2023-06-10T04:12:11;15.70;63.50
48589;DHT22;34369;51.174;6.738;2023-06-10T04:14:43;15.70;63.20
48589;DHT22;34369;51.174;6.738;2023-06-10T04:17:17;15.70;63.00
48589;DHT22;34369;51.174;6.738;2023-06-10T04:19:49;15.70;63.00
48589;DHT22;34369;51.174;6.738;2023-06-10T04:22:22;15.70;63.10
48589;DHT22;34369;51.174;6.738;2023-06-10T04:24:55;15.80;63.90
48589;DHT22;34369;51.174;6.738;2023-06-10T04:27:29;15.80;63.90
48589;DHT22;34369;51.174;6.738;2023-06-10T04:30:02;15.80;64.00
48589;DHT22;34369;51.174;6.738;2023-06-10T04:32:35;15.80;64.10
48589;DHT22;34369;51.174;6.738;2023-06-10T04:35:11;15.80;64.30
48589;DHT22;34369;51.174;6.738;2023-06-10T04:41:15;15.90;65.00
48589;DHT22;34369;51.174;6.738;2023-06-10T04:43:49;16.00;64.50
48589;DHT22;34369;51.174;6.738;2023-06-10T04:46:21;16.00;64.50
48589;DHT22;34369;51.174;6.738;2023-06-10T04:48:54;16.10;64.50
48589;DHT22;34369;51.174;6.738;2023-06-10T04:51:26;16.10;64.80
48589;DHT22;34369;51.174;6.738;2023-06-10T04:53:59;16.20;64.90
48589;DHT22;34369;51.174;6.738;2023-06-10T04:56:34;16.20;65.20
48589;DHT22;34369;51.174;6.738;2023-06-10T04:59:10;16.30;65.00
48589;DHT22;34369;51.174;6.738;2023-06-10T05:01:42;16.40;65.10
48589;DHT22;34369;51.174;6.738;2023-06-10T05:04:17;16.50;65.10
48589;DHT22;34369;51.174;6.738;2023-06-10T05:06:50;16.60;65.30
48589;DHT22;34369;51.174;6.738;2023-06-10T05:09:23;16.60;65.40
48589;DHT22;34369;51.174;6.738;2023-06-10T05:11:56;16.70;65.50
48589;DHT22;34369;51.174;6.738;2023-06-10T05:14:30;16.80;65.60
48589;DHT22;34369;51.174;6.738;2023-06-10T05:17:02;16.90;65.50
48589;DHT22;34369;51.174;6.738;2023-06-10T05:19:36;17.00;65.70
48589;DHT22;34369;51.174;6.738;2023-06-10T05:22:09;17.10;65.80
48589;DHT22;34369;51.174;6.738;2023-06-10T05:24:41;17.20;65.70
48589;DHT22;34369;51.174;6.738;2023-06-10T05:27:15;17.30;65.60
48589;DHT22;34369;51.174;6.738;2023-06-10T05:29:50;17.40;65.80
48589;DHT22;34369;51.174;6.738;2023-06-10T05:32:23;17.50;65.60
48589;DHT22;34369;51.174;6.738;2023-06-10T05:34:55;17.60;64.80
48589;DHT22;34369;51.174;6.738;2023-06-10T05:37:27;17.80;64.10
48589;DHT22;34369;51.174;6.738;2023-06-10T05:39:59;17.80;64.00
48589;DHT22;34369;51.174;6.738;2023-06-10T05:42:31;18.00;63.40
48589;DHT22;34369;51.174;6.738;2023-06-10T05:45:06;18.10;63.20
48589;DHT22;34369;51.174;6.738;2023-06-10T05:47:39;18.20;62.40
48589;DHT22;34369;51.174;6.738;2023-06-10T05:50:12;18.30;62.30
48589;DHT22;34369;51.174;6.738;2023-06-10T05:52:44;18.40;61.40
48589;DHT22;34369;51.174;6.738;2023-06-10T05:55:22;18.50;61.10
48589;DHT22;34369;51.174;6.738;2023-06-10T05:58:01;18.60;60.80
48589;DHT22;34369;51.174;6.738;2023-06-10T06:00:36;18.80;60.30
48589;DHT22;34369;51.174;6.738;2023-06-10T06:03:09;18.90;60.00
48589;DHT22;34369;51.174;6.738;2023-06-10T06:05:42;19.00;59.80
48589;DHT22;34369;51.174;6.738;2023-06-10T06:08:15;19.10;59.50
48589;DHT22;34369;51.174;6.738;2023-06-10T06:10:50;19.20;59.10
48589;DHT22;34369;51.174;6.738;2023-06-10T06:13:22;19.40;58.70
48589;DHT22;34369;51.174;6.738;2023-06-10T06:15:56;19.40;58.70
48589;DHT22;34369;51.174;6.738;2023-06-10T06:18:29;19.50;58.90
48589;DHT22;34369;51.174;6.738;2023-06-10T06:21:01;19.70;58.40
48589;DHT22;34369;51.174;6.738;2023-06-10T06:23:33;19.80;58.00
48589;DHT22;34369;51.174;6.738;2023-06-10T06:26:05;19.90;57.70
48589;DHT22;34369;51.174;6.738;2023-06-10T06:28:39;20.00;57.60
48589;DHT22;34369;51.174;6.738;2023-06-10T06:31:12;20.10;56.60
48589;DHT22;34369;51.174;6.738;2023-06-10T06:33:46;20.20;56.50
48589;DHT22;34369;51.174;6.738;2023-06-10T06:36:18;20.30;56.30
48589;DHT22;34369;51.174;6.738;2023-06-10T06:38:54;20.40;56.20
48589;DHT22;34369;51.174;6.738;2023-06-10T06:41:29;20.50;55.90
48589;DHT22;34369;51.174;6.738;2023-06-10T06:44:13;20.60;55.80
48589;DHT22;34369;51.174;6.738;2023-06-10T06:46:47;20.70;54.70
48589;DHT22;34369;51.174;6.738;2023-06-10T06:49:19;20.80;54.70
48589;DHT22;34369;51.174;6.738;2023-06-10T06:51:53;20.90;54.40
48589;DHT22;34369;51.174;6.738;2023-06-10T06:54:28;21.00;53.80
48589;DHT22;34369;51.174;6.738;2023-06-10T07:00:19;21.20;52.40
48589;DHT22;34369;51.174;6.738;2023-06-10T07:02:55;21.40;52.00
48589;DHT22;34369;51.174;6.738;2023-06-10T07:05:29;21.50;52.00
48589;DHT22;34369;51.174;6.738;2023-06-10T07:08:02;21.50;52.10
48589;DHT22;34369;51.174;6.738;2023-06-10T07:10:34;21.70;51.90
48589;DHT22;34369;51.174;6.738;2023-06-10T07:13:07;21.70;51.60
48589;DHT22;34369;51.174;6.738;2023-06-10T07:15:39;21.90;51.30
48589;DHT22;34369;51.174;6.738;2023-06-10T07:18:15;21.90;50.70
48589;DHT22;34369;51.174;6.738;2023-06-10T07:20:48;22.00;50.10
48589;DHT22;34369;51.174;6.738;2023-06-10T07:23:25;22.10;50.40
48589;DHT22;34369;51.174;6.738;2023-06-10T07:25:58;22.20;50.20
48589;DHT22;34369;51.174;6.738;2023-06-10T07:32:13;22.40;49.50
48589;DHT22;34369;51.174;6.738;2023-06-10T07:35:03;22.50;49.00
48589;DHT22;34369;51.174;6.738;2023-06-10T07:38:03;22.50;49.30
48589;DHT22;34369;51.174;6.738;2023-06-10T07:40:38;22.70;48.80
48589;DHT22;34369;51.174;6.738;2023-06-10T07:43:11;22.70;48.60
48589;DHT22;34369;51.174;6.738;2023-06-10T07:45:43;22.80;48.60
48589;DHT22;34369;51.174;6.738;2023-06-10T07:48:33;22.90;48.40
48589;DHT22;34369;51.174;6.738;2023-06-10T07:51:10;23.00;47.20
48589;DHT22;34369;51.174;6.738;2023-06-10T07:53:44;23.10;47.20
48589;DHT22;34369;51.174;6.738;2023-06-10T07:56:16;23.30;46.80
48589;DHT22;34369;51.174;6.738;2023-06-10T07:58:49;23.50;47.30
48589;DHT22;34369;51.174;6.738;2023-06-10T08:01:23;23.70;47.50
48589;DHT22;34369;51.174;6.738;2023-06-10T08:03:57;24.00;46.80
48589;DHT22;34369;51.174;6.738;2023-06-10T08:06:31;24.40;47.00
48589;DHT22;34369;51.174;6.738;2023-06-10T08:09:04;24.90;46.80
48589;DHT22;34369;51.174;6.738;2023-06-10T08:11:37;25.30;46.60
48589;DHT22;34369;51.174;6.738;2023-06-10T08:14:09;25.70;46.20
48589;DHT22;34369;51.174;6.738;2023-06-10T08:16:56;26.10;45.60
48589;DHT22;34369;51.174;6.738;2023-06-10T08:19:30;26.60;43.90
48589;DHT22;34369;51.174;6.738;2023-06-10T08:22:04;27.00;44.00
48589;DHT22;34369;51.174;6.738;2023-06-10T08:24:40;27.40;43.50
48589;DHT22;34369;51.174;6.738;2023-06-10T08:27:15;27.70;43.00
48589;DHT22;34369;51.174;6.738;2023-06-10T08:29:47;28.00;42.90
48589;DHT22;34369;51.174;6.738;2023-06-10T08:32:19;28.30;42.60
48589;DHT22;34369;51.174;6.738;2023-06-10T08:34:51;28.60;42.00
48589;DHT22;34369;51.174;6.738;2023-06-10T08:37:25;28.90;41.40
48589;DHT22;34369;51.174;6.738;2023-06-10T08:39:58;29.20;41.10
48589;DHT22;34369;51.174;6.738;2023-06-10T08:42:33;29.40;40.90
48589;DHT22;34369;51.174;6.738;2023-06-10T08:45:10;29.60;40.10
48589;DHT22;34369;51.174;6.738;2023-06-10T08:47:50;29.80;39.70
48589;DHT22;34369;51.174;6.738;2023-06-10T08:50:23;30.00;39.50
48589;DHT22;34369;51.174;6.738;2023-06-10T08:52:58;30.20;39.50
48589;DHT22;34369;51.174;6.738;2023-06-10T08:55:33;30.40;39.60
48589;DHT22;34369;51.174;6.738;2023-06-10T08:58:07;30.60;39.10
48589;DHT22;34369;51.174;6.738;2023-06-10T09:00:40;30.70;38.80
48589;DHT22;34369;51.174;6.738;2023-06-10T09:03:13;30.90;38.20
48589;DHT22;34369;51.174;6.738;2023-06-10T09:05:46;31.10;38.00
48589;DHT22;34369;51.174;6.738;2023-06-10T09:08:20;31.10;37.90
48589;DHT22;34369;51.174;6.738;2023-06-10T09:10:53;31.30;37.80
48589;DHT22;34369;51.174;6.738;2023-06-10T09:13:25;31.40;37.70
48589;DHT22;34369;51.174;6.738;2023-06-10T09:15:57;31.50;37.90
48589;DHT22;34369;51.174;6.738;2023-06-10T09:18:31;31.60;37.60
48589;DHT22;34369;51.174;6.738;2023-06-10T09:21:05;31.70;37.80
48589;DHT22;34369;51.174;6.738;2023-06-10T09:23:38;31.90;37.70
48589;DHT22;34369;51.174;6.738;2023-06-10T09:26:11;31.90;37.60
48589;DHT22;34369;51.174;6.738;2023-06-10T09:28:44;32.00;37.60
48589;DHT22;34369;51.174;6.738;2023-06-10T09:31:16;32.10;37.40
48589;DHT22;34369;51.174;6.738;2023-06-10T09:33:52;32.20;37.10
48589;DHT22;34369;51.174;6.738;2023-06-10T09:36:25;32.30;36.90
48589;DHT22;34369;51.174;6.738;2023-06-10T09:39:01;32.40;37.20
48589;DHT22;34369;51.174;6.738;2023-06-10T09:41:35;32.50;37.10
48589;DHT22;34369;51.174;6.738;2023-06-10T09:44:26;32.50;36.90
48589;DHT22;34369;51.174;6.738;2023-06-10T09:47:12;32.50;36.20
48589;DHT22;34369;51.174;6.738;2023-06-10T09:49:54;32.40;36.30
48589;DHT22;34369;51.174;6.738;2023-06-10T09:52:28;32.30;36.20
48589;DHT22;34369;51.174;6.738;2023-06-10T09:55:02;32.10;36.60
48589;DHT22;34369;51.174;6.738;2023-06-10T09:57:36;32.00;36.30
48589;DHT22;34369;51.174;6.738;2023-06-10T10:00:12;31.80;36.60
48589;DHT22;34369;51.174;6.738;2023-06-10T10:02:50;31.60;36.60
48589;DHT22;34369;51.174;6.738;2023-06-10T10:05:25;31.40;36.80
48589;DHT22;34369;51.174;6.738;2023-06-10T10:07:57;31.30;37.00
48589;DHT22;34369;51.174;6.738;2023-06-10T10:10:31;31.10;37.20
48589;DHT22;34369;51.174;6.738;2023-06-10T10:13:04;30.90;37.40
48589;DHT22;34369;51.174;6.738;2023-06-10T10:15:36;30.80;37.50
48589;DHT22;34369;51.174;6.738;2023-06-10T10:18:14;30.70;37.40
48589;DHT22;34369;51.174;6.738;2023-06-10T10:20:50;30.60;37.80
48589;DHT22;34369;51.174;6.738;2023-06-10T10:23:29;30.50;38.20
48589;DHT22;34369;51.174;6.738;2023-06-10T10:26:10;30.40;38.00
48589;DHT22;34369;51.174;6.738;2023-06-10T10:28:48;30.30;37.60
48589;DHT22;34369;51.174;6.738;2023-06-10T10:31:26;30.30;37.90
48589;DHT22;34369;51.174;6.738;2023-06-10T10:34:02;30.30;38.00
48589;DHT22;34369;51.174;6.738;2023-06-10T10:36:38;30.30;37.80
48589;DHT22;34369;51.174;6.738;2023-06-10T10:39:12;30.20;38.00
48589;DHT22;34369;51.174;6.738;2023-06-10T10:41:49;30.20;38.00
48589;DHT22;34369;51.174;6.738;2023-06-10T10:44:22;30.30;37.70
48589;DHT22;34369;51.174;6.738;2023-06-10T10:46:56;30.30;37.90
48589;DHT22;34369;51.174;6.738;2023-06-10T10:49:31;30.40;37.30
48589;DHT22;34369;51.174;6.738;2023-06-10T10:52:09;30.50;37.40
48589;DHT22;34369;51.174;6.738;2023-06-10T10:54:44;30.60;37.40
48589;DHT22;34369;51.174;6.738;2023-06-10T10:57:20;30.70;36.60
48589;DHT22;34369;51.174;6.738;2023-06-10T10:59:57;30.80;36.10
48589;DHT22;34369;51.174;6.738;2023-06-10T11:02:41;30.80;36.00
48589;DHT22;34369;51.174;6.738;2023-06-10T11:05:16;30.80;36.20
48589;DHT22;34369;51.174;6.738;2023-06-10T11:07:56;30.80;36.40
48589;DHT22;34369;51.174;6.738;2023-06-10T11:10:30;30.80;36.40
48589;DHT22;34369;51.174;6.738;2023-06-10T11:13:10;30.70;36.60
48589;DHT22;34369;51.174;6.738;2023-06-10T11:15:49;30.80;35.90
48589;DHT22;34369;51.174;6.738;2023-06-10T11:18:28;30.80;36.50
48589;DHT22;34369;51.174;6.738;2023-06-10T11:21:02;31.00;36.10
48589;DHT22;34369;51.174;6.738;2023-06-10T11:23:40;31.10;36.10
48589;DHT22;34369;51.174;6.738;2023-06-10T11:26:31;31.10;36.00
48589;DHT22;34369;51.174;6.738;2023-06-10T11:29:10;31.10;35.70
48589;DHT22;34369;51.174;6.738;2023-06-10T11:31:45;31.20;35.40
48589;DHT22;34369;51.174;6.738;2023-06-10T11:34:23;31.10;35.30
48589;DHT22;34369;51.174;6.738;2023-06-10T11:36:58;31.10;35.50
48589;DHT22;34369;51.174;6.738;2023-06-10T11:39:32;31.00;35.30
48589;DHT22;34369;51.174;6.738;2023-06-10T11:42:07;31.00;35.20
48589;DHT22;34369;51.174;6.738;2023-06-10T11:44:51;30.90;36.20
48589;DHT22;34369;51.174;6.738;2023-06-10T11:47:26;31.00;35.60
48589;DHT22;34369;51.174;6.738;2023-06-10T11:49:59;31.10;36.10
48589;DHT22;34369;51.174;6.738;2023-06-10T11:52:31;31.20;35.70
48589;DHT22;34369;51.174;6.738;2023-06-10T11:55:09;31.30;35.40
48589;DHT22;34369;51.174;6.738;2023-06-10T11:57:41;31.40;35.10
48589;DHT22;34369;51.174;6.738;2023-06-10T12:00:16;31.50;34.70
48589;DHT22;34369;51.174;6.738;2023-06-10T12:02:55;31.50;34.60
48589;DHT22;34369;51.174;6.738;2023-06-10T12:05:29;31.50;34.90
48589;DHT22;34369;51.174;6.738;2023-06-10T12:08:11;31.40;34.60
48589;DHT22;34369;51.174;6.738;2023-06-10T12:10:44;31.30;34.60
48589;DHT22;34369;51.174;6.738;2023-06-10T12:13:17;31.10;35.00
48589;DHT22;34369;51.174;6.738;2023-06-10T12:15:51;31.00;34.40
48589;DHT22;34369;51.174;6.738;2023-06-10T12:18:24;30.90;34.70
48589;DHT22;34369;51.174;6.738;2023-06-10T12:20:57;30.80;34.70
48589;DHT22;34369;51.174;6.738;2023-06-10T12:23:30;30.70;34.70
48589;DHT22;34369;51.174;6.738;2023-06-10T12:26:05;30.60;34.80
48589;DHT22;34369;51.174;6.738;2023-06-10T12:28:39;30.60;35.10
48589;DHT22;34369;51.174;6.738;2023-06-10T12:31:24;30.50;35.00
48589;DHT22;34369;51.174;6.738;2023-06-10T12:34:07;30.30;35.40
48589;DHT22;34369;51.174;6.738;2023-06-10T12:36:48;30.20;35.30
48589;DHT22;34369;51.174;6.738;2023-06-10T12:39:20;30.00;35.60
48589;DHT22;34369;51.174;6.738;2023-06-10T12:41:53;29.90;35.80
48589;DHT22;34369;51.174;6.738;2023-06-10T12:44:33;29.70;36.00
48589;DHT22;34369;51.174;6.738;2023-06-10T12:47:20;29.60;36.10
48589;DHT22;34369;51.174;6.738;2023-06-10T12:50:06;29.50;36.70
48589;DHT22;34369;51.174;6.738;2023-06-10T12:52:40;29.40;36.40
48589;DHT22;34369;51.174;6.738;2023-06-10T12:55:12;29.30;36.60
48589;DHT22;34369;51.174;6.738;2023-06-10T12:57:48;29.20;36.90
48589;DHT22;34369;51.174;6.738;2023-06-10T13:00:27;29.20;36.60
48589;DHT22;34369;51.174;6.738;2023-06-10T13:03:12;29.20;37.90
48589;DHT22;34369;51.174;6.738;2023-06-10T13:05:46;29.30;37.50
48589;DHT22;34369;51.174;6.738;2023-06-10T13:08:19;29.40;37.70
48589;DHT22;34369;51.174;6.738;2023-06-10T13:10:53;29.50;37.30
48589;DHT22;34369;51.174;6.738;2023-06-10T13:13:26;29.60;37.40
48589;DHT22;34369;51.174;6.738;2023-06-10T13:16:00;29.70;37.10
48589;DHT22;34369;51.174;6.738;2023-06-10T13:18:34;29.80;37.10
48589;DHT22;34369;51.174;6.738;2023-06-10T13:21:09;30.00;38.00
48589;DHT22;34369;51.174;6.738;2023-06-10T13:23:44;30.10;36.90
48589;DHT22;34369;51.174;6.738;2023-06-10T13:26:18;30.30;37.00
48589;DHT22;34369;51.174;6.738;2023-06-10T13:28:50;30.50;37.00
48589;DHT22;34369;51.174;6.738;2023-06-10T13:31:23;30.70;36.70
48589;DHT22;34369;51.174;6.738;2023-06-10T13:33:56;31.00;36.10
48589;DHT22;34369;51.174;6.738;2023-06-10T13:36:30;31.10;34.90
48589;DHT22;34369;51.174;6.738;2023-06-10T13:39:03;31.40;34.40
48589;DHT22;34369;51.174;6.738;2023-06-10T13:41:36;31.60;33.80
48589;DHT22;34369;51.174;6.738;2023-06-10T13:44:09;31.70;33.70
48589;DHT22;34369;51.174;6.738;2023-06-10T13:46:41;31.90;33.90
48589;DHT22;34369;51.174;6.738;2023-06-10T13:49:19;31.90;34.50
48589;DHT22;34369;51.174;6.738;2023-06-10T13:51:55;32.00;33.70
48589;DHT22;34369;51.174;6.738;2023-06-10T13:54:30;32.10;34.10
48589;DHT22;34369;51.174;6.738;2023-06-10T13:57:03;32.10;33.80
48589;DHT22;34369;51.174;6.738;2023-06-10T13:59:41;32.10;33.90
48589;DHT22;34369;51.174;6.738;2023-06-10T14:02:55;32.10;34.00
48589;DHT22;34369;51.174;6.738;2023-06-10T14:05:28;32.10;34.00
48589;DHT22;34369;51.174;6.738;2023-06-10T14:08:01;32.00;33.90
48589;DHT22;34369;51.174;6.738;2023-06-10T14:10:33;31.90;34.10
48589;DHT22;34369;51.174;6.738;2023-06-10T14:13:06;31.90;34.70
48589;DHT22;34369;51.174;6.738;2023-06-10T14:15:39;31.70;34.30
48589;DHT22;34369;51.174;6.738;2023-06-10T14:18:13;31.70;34.30
48589;DHT22;34369;51.174;6.738;2023-06-10T14:20:47;31.50;35.00
48589;DHT22;34369;51.174;6.738;2023-06-10T14:23:19;31.50;35.00
48589;DHT22;34369;51.174;6.738;2023-06-10T14:25:52;31.40;35.40
48589;DHT22;34369;51.174;6.738;2023-06-10T14:28:24;31.30;35.30
48589;DHT22;34369;51.174;6.738;2023-06-10T14:30:58;31.20;35.30
48589;DHT22;34369;51.174;6.738;2023-06-10T14:33:30;31.10;35.20
48589;DHT22;34369;51.174;6.738;2023-06-10T14:36:04;31.00;35.40
48589;DHT22;34369;51.174;6.738;2023-06-10T14:38:36;30.90;35.30
48589;DHT22;34369;51.174;6.738;2023-06-10T14:41:08;30.80;35.30
48589;DHT22;34369;51.174;6.738;2023-06-10T14:43:40;30.70;35.40
48589;DHT22;34369;51.174;6.738;2023-06-10T14:46:12;30.60;35.40
48589;DHT22;34369;51.174;6.738;2023-06-10T14:48:45;30.50;35.50
48589;DHT22;34369;51.174;6.738;2023-06-10T14:51:18;30.50;35.60
48589;DHT22;34369;51.174;6.738;2023-06-10T14:53:51;30.40;36.10
48589;DHT22;34369;51.174;6.738;2023-06-10T14:56:29;30.30;36.40
48589;DHT22;34369;51.174;6.738;2023-06-10T14:59:04;30.30;36.00
48589;DHT22;34369;51.174;6.738;2023-06-10T15:01:37;30.30;36.10
48589;DHT22;34369;51.174;6.738;2023-06-10T15:04:10;30.30;36.20
48589;DHT22;34369;51.174;6.738;2023-06-10T15:06:48;30.30;36.20
48589;DHT22;34369;51.174;6.738;2023-06-10T15:09:21;30.30;36.00
48589;DHT22;34369;51.174;6.738;2023-06-10T15:11:57;30.20;36.20
48589;DHT22;34369;51.174;6.738;2023-06-10T15:14:30;30.20;36.40
48589;DHT22;34369;51.174;6.738;2023-06-10T15:17:03;30.10;36.40
48589;DHT22;34369;51.174;6.738;2023-06-10T15:19:35;30.00;36.60
48589;DHT22;34369;51.174;6.738;2023-06-10T15:22:09;30.00;37.00
48589;DHT22;34369;51.174;6.738;2023-06-10T15:24:42;29.90;36.90
48589;DHT22;34369;51.174;6.738;2023-06-10T15:27:14;29.90;37.40
48589;DHT22;34369;51.174;6.738;2023-06-10T15:29:49;29.80;37.10
48589;DHT22;34369;51.174;6.738;2023-06-10T15:32:22;29.70;36.80
48589;DHT22;34369;51.174;6.738;2023-06-10T15:34:54;29.70;36.70
48589;DHT22;34369;51.174;6.738;2023-06-10T15:37:29;29.60;36.10
48589;DHT22;34369;51.174;6.738;2023-06-10T15:40:01;29.50;36.00
48589;DHT22;34369;51.174;6.738;2023-06-10T15:42:38;29.50;36.00
48589;DHT22;34369;51.174;6.738;2023-06-10T15:45:10;29.40;35.70
48589;DHT22;34369;51.174;6.738;2023-06-10T15:47:52;29.30;36.20
48589;DHT22;34369;51.174;6.738;2023-06-10T15:50:45;29.30;36.10
48589;DHT22;34369;51.174;6.738;2023-06-10T15:53:21;29.20;36.00
48589;DHT22;34369;51.174;6.738;2023-06-10T15:55:54;29.20;36.40
48589;DHT22;34369;51.174;6.738;2023-06-10T15:58:27;29.20;36.90
48589;DHT22;34369;51.174;6.738;2023-06-10T16:00:59;29.10;36.50
48589;DHT22;34369;51.174;6.738;2023-06-10T16:03:31;29.20;36.60
48589;DHT22;34369;51.174;6.738;2023-06-10T16:06:04;29.20;37.10
48589;DHT22;34369;51.174;6.738;2023-06-10T16:08:38;29.20;36.60
48589;DHT22;34369;51.174;6.738;2023-06-10T16:11:11;29.30;36.60
48589;DHT22;34369;51.174;6.738;2023-06-10T16:13:43;29.30;36.20
48589;DHT22;34369;51.174;6.738;2023-06-10T16:16:16;29.40;35.70
48589;DHT22;34369;51.174;6.738;2023-06-10T16:18:48;29.40;35.80
48589;DHT22;34369;51.174;6.738;2023-06-10T16:21:22;29.40;35.80
48589;DHT22;34369;51.174;6.738;2023-06-10T16:23:56;29.40;35.80
48589;DHT22;34369;51.174;6.738;2023-06-10T16:26:28;29.40;35.40